createdAt,value
2018-08-10T00:01:50.160Z,35.00
2018-08-10T00:04:20.105Z,36.57
2018-08-10T00:06:50.101Z,35.93
2018-08-10T00:09:20.105Z,35.83
2018-08-10T00:11:50.050Z,35.17
2018-08-10T00:14:20.050Z,36.50
2018-08-10T00:16:50.026Z,36.00
2018-08-10T00:19:20.055Z,35.03
2018-08-10T00:21:50.061Z,36.40
2018-08-10T00:24:20.093Z,36.27
2018-08-10T00:26:50.040Z,37.30
2018-08-10T00:29:20.033Z,42.27
2018-08-10T00:31:50.164Z,37.40
2018-08-10T00:34:20.166Z,36.93
2018-08-10T00:36:50.182Z,36.43
2018-08-10T00:39:20.176Z,37.20
2018-08-10T00:41:50.152Z,34.80
2018-08-10T00:44:20.157Z,35.30
2018-08-10T00:46:50.117Z,34.20
2018-08-10T00:49:20.178Z,37.60
2018-08-10T00:51:50.123Z,34.77
2018-08-10T00:54:20.113Z,35.63
2018-08-10T00:56:50.255Z,37.67
2018-08-10T00:59:20.416Z,36.27
2018-08-10T01:01:50.483Z,35.60
2018-08-10T01:04:20.496Z,35.30
2018-08-10T01:06:50.508Z,36.97
2018-08-10T01:09:20.634Z,34.17
2018-08-10T01:11:50.728Z,35.80
2018-08-10T01:14:20.787Z,36.83
2018-08-10T01:16:51.462Z,36.03
2018-08-10T01:19:22.000Z,35.17
2018-08-10T01:21:52.069Z,37.40
2018-08-10T01:24:22.160Z,37.10
2018-08-10T01:26:52.236Z,36.37
2018-08-10T01:29:22.225Z,36.07
2018-08-10T01:31:52.230Z,36.07
2018-08-10T01:34:22.288Z,35.77
2018-08-10T01:36:52.342Z,36.47
2018-08-10T01:39:25.243Z,36.13
2018-08-10T01:41:55.206Z,35.57
2018-08-10T01:44:25.171Z,39.10
2018-08-10T01:46:55.173Z,36.90
2018-08-10T01:49:25.131Z,36.03
2018-08-10T01:51:55.131Z,37.17
2018-08-10T01:54:25.466Z,39.80
2018-08-10T01:56:55.515Z,36.70
2018-08-10T01:59:25.472Z,34.50
2018-08-10T02:01:55.437Z,34.60
2018-08-10T02:04:25.495Z,36.00
2018-08-10T02:06:55.457Z,34.40
2018-08-10T02:09:25.507Z,34.77
2018-08-10T02:11:55.464Z,35.67
2018-08-10T02:14:25.536Z,36.50
2018-08-10T02:16:55.566Z,36.70
2018-08-10T02:19:25.571Z,35.60
2018-08-10T02:21:58.455Z,36.50
2018-08-10T02:24:28.440Z,35.43
2018-08-10T02:26:58.421Z,36.80
2018-08-10T02:29:28.617Z,36.90
2018-08-10T02:31:59.050Z,36.23
2018-08-10T02:34:29.427Z,39.60
2018-08-10T02:36:59.847Z,35.43
2018-08-10T02:39:30.334Z,36.93
2018-08-10T02:42:03.511Z,37.10
2018-08-10T02:44:33.915Z,38.27
2018-08-10T02:47:04.411Z,37.20
2018-08-10T02:49:35.392Z,36.57
2018-08-10T02:52:05.857Z,38.27
2018-08-10T02:54:36.356Z,38.73
2018-08-10T02:57:06.655Z,39.00
2018-08-10T02:59:37.098Z,37.37
2018-08-10T03:02:07.535Z,36.60
2018-08-10T03:04:37.834Z,37.90
2018-08-10T03:07:08.245Z,37.77
2018-08-10T03:09:38.331Z,37.50
2018-08-10T03:12:09.544Z,37.17
2018-08-10T03:14:40.067Z,36.27
2018-08-10T03:17:10.602Z,36.03
2018-08-10T03:19:41.670Z,35.50
2018-08-10T03:22:11.728Z,38.73
2018-08-10T03:24:41.665Z,38.07
2018-08-10T03:27:11.644Z,36.10
2018-08-10T03:29:41.705Z,38.50
2018-08-10T03:32:11.734Z,35.80
2018-08-10T03:34:41.723Z,36.43
2018-08-10T03:37:11.860Z,36.50
2018-08-10T03:39:41.862Z,37.10
2018-08-10T03:42:11.860Z,37.93
2018-08-10T03:44:41.815Z,35.90
2018-08-10T03:47:11.960Z,38.67
2018-08-10T03:49:41.946Z,37.33
2018-08-10T03:52:12.045Z,36.80
2018-08-10T03:54:42.101Z,37.70
2018-08-10T03:57:12.115Z,36.93
2018-08-10T03:59:42.127Z,41.07
2018-08-10T04:02:12.185Z,37.20
2018-08-10T04:04:42.255Z,36.07
2018-08-10T04:07:12.324Z,37.90
2018-08-10T04:09:42.989Z,37.63
2018-08-10T04:12:12.985Z,35.87
2018-08-10T04:14:42.986Z,36.57
2018-08-10T04:17:17.077Z,38.27
2018-08-10T04:19:47.042Z,34.87
2018-08-10T04:22:17.108Z,36.10
2018-08-10T04:24:47.184Z,37.17
2018-08-10T04:27:17.519Z,37.03
2018-08-10T04:29:47.724Z,36.80
2018-08-10T04:32:17.738Z,35.20
2018-08-10T04:34:48.028Z,36.60
2018-08-10T04:37:18.634Z,35.57
2018-08-10T04:39:48.832Z,37.00
2018-08-10T04:42:18.899Z,35.80
2018-08-10T04:44:48.915Z,35.83
2018-08-10T04:47:19.036Z,33.03
2018-08-10T04:49:49.044Z,36.20
2018-08-10T04:52:18.982Z,42.97
2018-08-10T04:54:49.001Z,34.77
2018-08-10T04:57:19.058Z,33.97
2018-08-10T04:59:49.136Z,33.03
2018-08-10T05:02:19.111Z,34.70
2018-08-10T05:04:49.167Z,35.37
2018-08-10T05:07:19.132Z,34.00
2018-08-10T05:09:49.170Z,34.00
2018-08-10T05:12:19.107Z,32.77
2018-08-10T05:14:49.093Z,33.97
2018-08-10T05:17:19.091Z,33.20
2018-08-10T05:19:49.089Z,32.37
2018-08-10T05:22:19.077Z,31.40
2018-08-10T05:24:49.080Z,33.27
2018-08-10T05:27:19.139Z,31.80
2018-08-10T05:29:49.140Z,33.23
2018-08-10T05:32:19.137Z,31.17
2018-08-10T05:34:49.256Z,31.50
2018-08-10T05:37:19.398Z,30.03
2018-08-10T05:39:49.382Z,30.20
2018-08-10T05:42:19.609Z,29.13
2018-08-10T05:44:49.601Z,29.43
2018-08-10T05:47:19.746Z,29.47
2018-08-10T05:49:49.668Z,28.50
2018-08-10T05:52:19.689Z,28.40
2018-08-10T05:54:49.785Z,27.40
2018-08-10T05:57:19.984Z,28.43
2018-08-10T05:59:50.000Z,26.70
2018-08-10T06:02:20.007Z,26.57
2018-08-10T06:04:50.056Z,25.70
2018-08-10T06:07:20.034Z,25.77
2018-08-10T06:09:50.080Z,25.30
2018-08-10T06:12:20.206Z,25.00
2018-08-10T06:14:50.211Z,25.80
2018-08-10T06:17:20.193Z,23.03
2018-08-10T06:19:50.324Z,23.57
2018-08-10T06:22:21.147Z,24.87
2018-08-10T06:24:51.208Z,23.53
2018-08-10T06:27:21.194Z,22.60
2018-08-10T06:29:51.226Z,22.83
2018-08-10T06:32:21.288Z,21.73
2018-08-10T06:34:51.347Z,21.80
2018-08-10T06:37:21.360Z,20.50
2018-08-10T06:39:52.334Z,21.90
2018-08-10T06:42:22.270Z,20.33
2018-08-10T06:44:52.247Z,19.40
2018-08-10T06:47:22.207Z,15.73
2018-08-10T06:49:52.222Z,15.73
2018-08-10T06:52:22.177Z,14.77
2018-08-10T06:54:52.171Z,16.70
2018-08-10T06:57:22.752Z,20.93
2018-08-10T06:59:53.259Z,15.60
2018-08-10T07:02:23.901Z,15.50
2018-08-10T07:04:54.253Z,16.53
2018-08-10T07:07:24.709Z,15.33
2018-08-10T07:09:55.211Z,15.00
2018-08-10T07:12:25.661Z,13.77
2018-08-10T07:14:55.886Z,14.20
2018-08-10T07:17:26.268Z,14.73
2018-08-10T07:19:56.777Z,13.57
2018-08-10T07:22:27.782Z,13.40
2018-08-10T07:24:57.984Z,13.20
2018-08-10T07:27:28.329Z,13.20
2018-08-10T07:29:58.752Z,13.90
2018-08-10T07:32:29.251Z,12.17
2018-08-10T07:34:59.803Z,12.37
2018-08-10T07:37:30.081Z,11.67
2018-08-10T07:40:00.531Z,13.77
2018-08-10T07:42:31.268Z,14.23
2018-08-10T07:45:01.601Z,12.50
2018-08-10T07:47:32.027Z,12.40
2018-08-10T07:50:02.365Z,11.77
2018-08-10T07:52:32.787Z,10.60
2018-08-10T07:55:03.323Z,10.87
2018-08-10T07:57:33.643Z,12.00
2018-08-10T08:00:04.076Z,11.10
2018-08-10T08:02:34.595Z,11.23
2018-08-10T08:05:05.127Z,11.33
2018-08-10T08:07:35.885Z,11.17
2018-08-10T08:10:06.984Z,10.67
2018-08-10T08:12:37.489Z,11.63
2018-08-10T08:15:08.095Z,12.10
2018-08-10T08:17:38.581Z,11.93
2018-08-10T08:20:09.697Z,12.63
2018-08-10T08:22:40.189Z,12.57
2018-08-10T08:25:10.374Z,12.90
2018-08-10T08:27:40.810Z,12.20
2018-08-10T08:30:11.506Z,12.10
2018-08-10T08:32:41.959Z,12.13
2018-08-10T08:35:12.478Z,13.00
2018-08-10T08:37:43.364Z,12.13
2018-08-10T08:40:22.538Z,12.73
2018-08-10T08:42:53.226Z,12.83
2018-08-10T08:46:02.461Z,23.00
2018-08-10T08:48:35.016Z,18.03
2018-08-10T08:51:07.568Z,17.30
2018-08-10T08:53:37.876Z,17.90
2018-08-10T08:56:12.497Z,21.20
2018-08-10T08:58:43.970Z,21.07
2018-08-10T09:01:14.798Z,25.20
2018-08-10T09:05:55.863Z,23.90
2018-08-10T09:08:26.251Z,23.37
2018-08-10T09:10:58.342Z,23.30
2018-08-10T09:13:32.187Z,24.40
2018-08-10T09:16:02.604Z,23.67
2018-08-10T09:18:33.080Z,24.17
2018-08-10T09:21:03.518Z,24.77
2018-08-10T09:23:33.990Z,26.07
2018-08-10T09:26:04.503Z,25.97
2018-08-10T09:28:35.094Z,27.67
2018-08-10T09:31:05.429Z,26.00
2018-08-10T09:33:35.947Z,26.90
2018-08-10T09:36:06.507Z,27.83
2018-08-10T09:38:36.957Z,27.10
2018-08-10T09:41:10.417Z,28.20
2018-08-10T09:43:40.716Z,27.20
2018-08-10T09:46:11.271Z,25.33
2018-08-10T09:48:42.327Z,23.87
2018-08-10T09:51:12.848Z,24.83
2018-08-10T09:53:43.442Z,26.23
2018-08-10T09:56:13.787Z,26.00
2018-08-10T09:58:44.429Z,25.67
2018-08-10T10:01:18.920Z,21.20
2018-08-10T10:03:49.467Z,17.20
2018-08-10T10:06:20.050Z,19.20
2018-08-10T10:08:50.427Z,18.73
2018-08-10T10:11:20.848Z,19.97
2018-08-10T10:13:51.414Z,18.23
2018-08-10T10:16:21.704Z,20.50
2018-08-10T10:18:52.141Z,21.63
2018-08-10T10:21:22.796Z,20.40
2018-08-10T10:23:53.525Z,19.93
2018-08-10T10:26:23.803Z,20.40
2018-08-10T10:28:54.186Z,18.30
2018-08-10T10:31:24.858Z,19.70
2018-08-10T10:33:55.440Z,19.23
2018-08-10T10:36:25.899Z,21.93
2018-08-10T10:38:56.315Z,20.30
2018-08-10T10:41:26.805Z,18.23
2018-08-10T10:43:57.092Z,17.90
2018-08-10T10:46:27.394Z,17.57
2018-08-10T10:48:57.883Z,16.27
2018-08-10T10:51:28.397Z,17.40
2018-08-10T10:53:58.685Z,17.20
2018-08-10T10:56:29.121Z,16.90
2018-08-10T10:58:59.682Z,18.30
2018-08-10T11:01:29.897Z,17.73
2018-08-10T11:04:00.300Z,15.47
2018-08-10T11:06:30.970Z,16.23
2018-08-10T11:09:01.578Z,17.23
2018-08-10T11:11:31.877Z,17.53
2018-08-10T11:14:02.328Z,18.73
2018-08-10T11:16:32.652Z,16.90
2018-08-10T11:19:03.100Z,18.37
2018-08-10T11:21:33.624Z,17.37
2018-08-10T11:24:04.078Z,17.67
2018-08-10T11:26:34.389Z,17.80
2018-08-10T11:29:04.906Z,19.20
2018-08-10T11:31:35.493Z,19.23
2018-08-10T11:34:05.993Z,16.17
2018-08-10T11:36:36.570Z,17.20
2018-08-10T11:39:11.053Z,16.30
2018-08-10T11:41:42.088Z,15.50
2018-08-10T11:44:16.059Z,15.80
2018-08-10T11:46:46.683Z,14.83
2018-08-10T11:49:17.233Z,15.10
2018-08-10T11:51:47.941Z,13.60
2018-08-10T11:54:18.403Z,14.10
2018-08-10T11:56:48.838Z,14.33
2018-08-10T11:59:19.385Z,14.40
2018-08-10T12:01:49.862Z,14.37
2018-08-10T12:04:20.510Z,15.43
2018-08-10T12:06:50.731Z,15.50
2018-08-10T12:09:24.564Z,15.50
2018-08-10T12:11:55.144Z,15.07
2018-08-10T12:14:25.704Z,14.40
2018-08-10T12:16:56.183Z,15.33
2018-08-10T12:19:26.782Z,14.97
2018-08-10T12:21:57.365Z,12.93
2018-08-10T12:24:28.035Z,13.97
2018-08-10T12:26:58.318Z,13.63
2018-08-10T12:29:28.979Z,14.93
2018-08-10T12:31:59.271Z,13.80
2018-08-10T12:34:29.745Z,13.60
2018-08-10T12:37:00.245Z,12.60
2018-08-10T12:39:30.709Z,12.23
2018-08-10T12:42:01.102Z,13.07
2018-08-10T12:44:31.464Z,13.00
2018-08-10T12:47:02.145Z,13.50
2018-08-10T12:49:33.206Z,11.90
2018-08-10T12:52:03.703Z,10.80
2018-08-10T12:54:34.286Z,11.20
2018-08-10T12:57:04.947Z,11.67
2018-08-10T12:59:35.463Z,10.70
2018-08-10T13:02:05.818Z,10.20
2018-08-10T13:04:36.420Z,10.80
2018-08-10T13:07:06.943Z,11.37
2018-08-10T13:09:37.387Z,9.73
2018-08-10T13:12:07.681Z,10.47
2018-08-10T13:14:37.999Z,9.73
2018-08-10T13:17:08.474Z,9.50
2018-08-10T13:20:13.942Z,10.27
2018-08-10T13:22:44.590Z,9.70
2018-08-10T13:25:15.227Z,12.10
2018-08-10T13:27:46.020Z,11.27
2018-08-10T13:30:16.433Z,9.67
2018-08-10T13:32:46.872Z,11.67
2018-08-10T13:35:17.372Z,10.07
2018-08-10T13:37:48.135Z,8.80
2018-08-10T13:40:18.724Z,9.53
2018-08-10T13:42:49.310Z,8.03
2018-08-10T13:45:19.887Z,7.63
2018-08-10T13:47:50.282Z,7.40
2018-08-10T13:50:20.634Z,9.10
2018-08-10T13:52:50.945Z,7.93
2018-08-10T13:55:21.366Z,8.13
2018-08-10T13:57:51.654Z,7.60
2018-08-10T14:00:23.495Z,6.67
2018-08-10T14:02:55.238Z,5.73
2018-08-10T14:05:25.819Z,6.37
2018-08-10T14:07:56.121Z,6.67
2018-08-10T14:10:26.615Z,6.60
2018-08-10T14:12:57.100Z,6.30
2018-08-10T14:15:27.668Z,6.57
2018-08-10T14:17:58.171Z,6.20
2018-08-10T14:20:28.523Z,6.83
2018-08-10T14:22:59.115Z,6.13
2018-08-10T14:25:29.445Z,6.30
2018-08-10T14:27:59.969Z,6.80
2018-08-10T14:30:30.545Z,6.67
2018-08-10T14:33:01.032Z,7.60
2018-08-10T14:35:31.465Z,7.30
2018-08-10T14:38:01.549Z,7.70
2018-08-10T14:40:31.686Z,8.10
2018-08-10T14:43:01.706Z,7.60
2018-08-10T14:45:31.720Z,8.27
2018-08-10T14:48:01.704Z,11.33
2018-08-10T14:50:31.758Z,8.40
2018-08-10T14:53:01.719Z,7.90
2018-08-10T14:55:31.719Z,8.83
2018-08-10T14:58:01.686Z,9.87
2018-08-10T15:00:31.716Z,9.20
2018-08-10T15:03:01.767Z,11.10
2018-08-10T15:05:31.850Z,10.30
2018-08-10T15:08:01.915Z,9.10
2018-08-10T15:10:31.919Z,9.20
2018-08-10T15:13:02.146Z,9.50
2018-08-10T15:15:31.999Z,9.27
2018-08-10T15:18:02.122Z,9.37
2018-08-10T15:20:32.114Z,9.83
2018-08-10T15:23:02.175Z,8.93
2018-08-10T15:25:32.136Z,9.10
2018-08-10T15:28:02.138Z,10.37
2018-08-10T15:30:32.179Z,10.83
2018-08-10T15:33:02.228Z,10.27
2018-08-10T15:35:32.239Z,10.93
2018-08-10T15:38:02.279Z,11.23
2018-08-10T15:40:32.599Z,10.17
2018-08-10T15:43:02.720Z,9.40
2018-08-10T15:45:32.788Z,9.60
2018-08-10T15:48:03.151Z,10.40
2018-08-10T15:50:33.164Z,10.57
2018-08-10T15:53:03.354Z,10.13
2018-08-10T15:55:33.444Z,10.40
2018-08-10T15:58:03.574Z,10.73
2018-08-10T16:00:33.604Z,11.20
2018-08-10T16:03:03.663Z,11.40
2018-08-10T16:05:34.230Z,10.20
2018-08-10T16:08:04.587Z,12.20
2018-08-10T16:10:35.219Z,10.10
2018-08-10T16:13:05.235Z,16.60
2018-08-10T16:15:35.232Z,11.93
2018-08-10T16:18:05.305Z,10.80
2018-08-10T16:20:35.293Z,13.50
2018-08-10T16:23:05.374Z,14.03
2018-08-10T16:25:35.402Z,13.20
2018-08-10T16:28:05.608Z,11.50
2018-08-10T16:30:35.617Z,12.17
2018-08-10T16:33:05.631Z,10.40
2018-08-10T16:35:35.635Z,12.70
2018-08-10T16:38:05.961Z,12.93
2018-08-10T16:40:36.603Z,13.90
2018-08-10T16:44:37.771Z,11.60
2018-08-10T16:47:08.196Z,13.00
2018-08-10T16:49:38.261Z,13.40
2018-08-10T16:52:08.736Z,12.63
2018-08-10T16:54:38.959Z,12.63
2018-08-10T16:57:09.117Z,13.10
2018-08-10T16:59:39.270Z,13.20
2018-08-10T17:02:10.561Z,12.67
2018-08-10T17:04:40.735Z,13.20
2018-08-10T17:07:10.839Z,12.80
2018-08-10T17:09:41.678Z,12.83
2018-08-10T17:12:12.141Z,13.23
2018-08-10T17:14:42.167Z,13.40
2018-08-10T17:17:12.163Z,12.00
2018-08-10T17:19:42.180Z,14.23
2018-08-10T17:22:12.175Z,13.97
2018-08-10T17:24:42.222Z,13.27
2018-08-10T17:27:12.304Z,13.57
2018-08-10T17:29:42.349Z,12.77
2018-08-10T17:32:12.389Z,13.17
2018-08-10T17:34:43.214Z,11.30
2018-08-10T17:37:13.785Z,13.20
2018-08-10T17:39:44.239Z,11.60
2018-08-10T17:42:14.638Z,10.60
2018-08-10T17:44:45.214Z,9.97
2018-08-10T17:47:15.544Z,9.87
2018-08-10T17:49:46.159Z,10.07
2018-08-10T17:52:16.464Z,11.17
2018-08-10T17:54:46.691Z,10.97
2018-08-10T17:57:17.142Z,10.30
2018-08-10T17:59:48.414Z,10.37
2018-08-10T18:02:18.728Z,11.63
2018-08-10T18:04:49.339Z,10.47
2018-08-10T18:07:19.929Z,10.70
2018-08-10T18:09:50.359Z,10.97
2018-08-10T18:12:20.981Z,11.40
2018-08-10T18:14:51.345Z,9.50
2018-08-10T18:17:21.771Z,8.83
2018-08-10T18:19:52.368Z,8.47
2018-08-10T18:22:22.953Z,8.10
2018-08-10T18:24:53.351Z,8.20
2018-08-10T18:27:23.653Z,7.30
2018-08-10T18:29:53.992Z,8.00
2018-08-10T18:32:24.347Z,7.87
2018-08-10T18:34:54.803Z,5.63
2018-08-10T18:37:25.169Z,6.57
2018-08-10T18:39:55.927Z,5.17
2018-08-10T18:42:26.124Z,5.30
2018-08-10T18:44:56.593Z,4.90
2018-08-10T18:47:27.376Z,4.73
2018-08-10T18:49:58.081Z,4.20
2018-08-10T18:52:28.400Z,4.63
2018-08-10T18:54:59.704Z,3.77
2018-08-10T18:57:30.112Z,5.50
2018-08-10T19:00:00.694Z,4.70
2018-08-10T19:02:31.170Z,3.60
2018-08-10T19:05:01.720Z,5.27
2018-08-10T19:07:31.987Z,5.60
2018-08-10T19:10:02.464Z,3.43
2018-08-10T19:12:32.811Z,4.23
2018-08-10T19:15:03.337Z,3.97
2018-08-10T19:17:33.717Z,3.90
2018-08-10T19:20:04.081Z,3.20
2018-08-10T19:22:34.427Z,5.07
2018-08-10T19:25:05.794Z,4.70
2018-08-10T19:27:36.533Z,2.50
2018-08-10T19:30:14.195Z,2.87
2018-08-10T19:32:45.682Z,3.57
2018-08-10T19:35:16.609Z,2.50
2018-08-10T19:37:47.211Z,2.40
2018-08-10T19:40:18.598Z,2.73
2018-08-10T19:42:49.485Z,2.27
2018-08-10T19:45:19.795Z,2.20
2018-08-10T19:47:50.274Z,2.50
2018-08-10T19:50:23.600Z,2.10
2018-08-10T19:52:54.503Z,2.77
2018-08-10T19:55:25.083Z,2.77
2018-08-10T19:57:55.516Z,2.43
2018-08-10T20:00:25.841Z,2.67
2018-08-10T20:02:56.272Z,2.23
2018-08-10T20:05:26.887Z,2.70
2018-08-10T20:07:57.382Z,2.50
2018-08-10T20:10:27.851Z,4.67
2018-08-10T20:12:58.302Z,6.60
2018-08-10T20:15:28.706Z,4.50
2018-08-10T20:17:59.047Z,3.73
2018-08-10T20:20:29.770Z,2.43
2018-08-10T20:23:00.144Z,3.10
2018-08-10T20:25:30.699Z,3.43
2018-08-10T20:28:01.023Z,3.80
2018-08-10T20:30:32.291Z,2.93
2018-08-10T20:33:02.889Z,2.70
2018-08-10T20:35:33.612Z,3.20
2018-08-10T20:38:04.230Z,2.90
2018-08-10T20:40:34.506Z,2.63
2018-08-10T20:43:05.076Z,3.30
2018-08-10T20:45:36.159Z,3.00
2018-08-10T20:48:06.888Z,2.97
2018-08-10T20:50:37.388Z,2.30
2018-08-10T20:53:07.945Z,2.80
2018-08-10T20:55:38.315Z,2.83
2018-08-10T20:58:08.539Z,2.67
2018-08-10T21:00:38.710Z,2.67
2018-08-10T21:03:09.131Z,2.80
2018-08-10T21:05:39.867Z,2.00
2018-08-10T21:08:10.524Z,2.33
2018-08-10T21:10:40.928Z,2.60
2018-08-10T21:13:11.425Z,2.83
2018-08-10T21:15:42.018Z,3.23
2018-08-10T21:18:12.368Z,2.70
2018-08-10T21:20:42.985Z,7.53
2018-08-10T21:23:13.474Z,17.63
2018-08-10T21:25:43.926Z,14.90
2018-08-10T21:28:14.376Z,8.43
2018-08-10T21:30:44.878Z,5.70
2018-08-10T21:33:15.310Z,4.43
2018-08-10T21:35:52.227Z,3.60
2018-08-10T21:38:22.824Z,3.77
2018-08-10T21:40:54.457Z,3.43
2018-08-10T21:43:25.194Z,3.20
2018-08-10T21:45:55.898Z,4.27
2018-08-10T21:48:26.460Z,4.30
2018-08-10T21:50:56.931Z,7.87
2018-08-10T21:53:27.218Z,3.90
2018-08-10T21:55:57.675Z,3.17
2018-08-10T21:58:28.199Z,3.20
2018-08-10T22:01:04.900Z,2.97
2018-08-10T22:03:36.464Z,3.07
2018-08-10T22:06:06.984Z,2.57
2018-08-10T22:08:37.642Z,2.20
2018-08-10T22:11:07.983Z,2.40
2018-08-10T22:13:43.187Z,2.23
2018-08-10T22:16:18.714Z,3.67
2018-08-10T22:18:54.229Z,3.40
2018-08-10T22:21:24.655Z,2.97
2018-08-10T22:23:55.087Z,2.77
2018-08-10T22:26:25.715Z,2.80
2018-08-10T22:28:56.014Z,2.77
2018-08-10T22:31:26.481Z,3.10
2018-08-10T22:33:58.087Z,2.80
2018-08-10T22:36:28.644Z,2.70
2018-08-10T22:38:59.112Z,3.77
2018-08-10T22:41:29.709Z,3.40
2018-08-10T22:44:00.025Z,3.50
2018-08-10T22:46:30.443Z,2.63
2018-08-10T22:49:00.943Z,2.83
2018-08-10T22:51:31.097Z,2.57
2018-08-10T22:54:01.452Z,3.53
2018-08-10T22:56:31.626Z,2.10
2018-08-10T22:59:02.062Z,2.63
2018-08-10T23:01:32.483Z,2.17
2018-08-10T23:04:02.816Z,2.43
2018-08-10T23:06:33.234Z,1.70
2018-08-10T23:09:04.859Z,1.80
2018-08-10T23:11:35.170Z,2.43
2018-08-10T23:14:05.534Z,1.70
2018-08-10T23:16:36.194Z,1.73
2018-08-10T23:19:06.973Z,1.30
2018-08-10T23:21:37.384Z,1.80
2018-08-10T23:24:07.606Z,1.70
2018-08-10T23:26:37.821Z,1.80
2018-08-10T23:29:08.250Z,2.50
2018-08-10T23:31:38.634Z,1.97
2018-08-10T23:34:09.023Z,1.57
2018-08-10T23:36:39.282Z,1.97
2018-08-10T23:39:11.824Z,1.60
2018-08-10T23:41:42.525Z,1.77
2018-08-10T23:44:12.842Z,1.83
2018-08-10T23:46:43.291Z,1.77
2018-08-10T23:49:13.814Z,1.83
2018-08-10T23:51:44.273Z,2.50
2018-08-10T23:54:15.321Z,1.67
2018-08-10T23:56:45.713Z,1.90
2018-08-10T23:59:16.822Z,1.87
